createdAt,value
2022-08-08T00:00:52.189Z,62.44
2022-08-08T00:03:31.520Z,62.71
2022-08-08T00:06:28.322Z,62.50
2022-08-08T00:09:34.725Z,62.90
2022-08-08T00:12:10.658Z,63.18
2022-08-08T00:14:57.117Z,63.05
2022-08-08T00:18:12.307Z,63.33
2022-08-08T00:20:59.112Z,63.61
2022-08-08T00:23:42.462Z,63.72
2022-08-08T00:26:43.545Z,63.91
2022-08-08T00:29:45.283Z,64.03
2022-08-08T00:32:34.892Z,64.30
2022-08-08T00:35:41.344Z,63.81
2022-08-08T00:38:16.981Z,63.85
2022-08-08T00:41:55.592Z,64.42
2022-08-08T00:44:44.218Z,64.38
2022-08-08T00:48:02.097Z,64.87
2022-08-08T00:50:55.417Z,65.57
2022-08-08T00:54:04.281Z,65.68
2022-08-08T00:56:52.021Z,65.77
2022-08-08T01:00:06.372Z,66.63
2022-08-08T01:03:59.157Z,66.22
2022-08-08T01:06:16.357Z,65.93
2022-08-08T01:09:35.034Z,66.72
2022-08-08T01:12:43.148Z,66.54
2022-08-08T01:15:54.357Z,66.61
2022-08-08T01:18:52.834Z,66.72
2022-08-08T01:22:13.084Z,67.24
2022-08-08T01:25:43.910Z,67.13
2022-08-08T01:28:36.889Z,67.16
2022-08-08T01:32:14.723Z,67.05
2022-08-08T01:35:29.686Z,67.76
2022-08-08T01:38:51.115Z,67.21
2022-08-08T01:41:34.481Z,67.38
2022-08-08T01:44:53.533Z,68.24
2022-08-08T01:48:13.887Z,68.29
2022-08-08T01:51:17.156Z,68.06
2022-08-08T01:55:44.891Z,68.64
2022-08-08T01:58:10.959Z,68.88
2022-08-08T02:01:03.527Z,68.16
2022-08-08T02:03:54.903Z,68.31
2022-08-08T02:07:05.630Z,69.09
2022-08-08T02:10:01.949Z,68.45
2022-08-08T02:12:31.183Z,68.38
2022-08-08T02:15:11.107Z,68.43
2022-08-08T02:18:43.343Z,69.70
2022-08-08T02:21:49.126Z,69.00
2022-08-08T02:24:32.175Z,68.83
2022-08-08T02:27:16.986Z,69.42
2022-08-08T02:30:20.931Z,68.63
2022-08-08T02:33:41.373Z,69.15
2022-08-08T02:36:45.126Z,70.03
2022-08-08T02:39:42.653Z,69.19
2022-08-08T02:42:41.554Z,69.75
2022-08-08T02:45:54.030Z,68.81
2022-08-08T02:48:42.633Z,69.43
2022-08-08T02:51:46.563Z,69.12
2022-08-08T02:54:30.158Z,69.15
2022-08-08T02:57:51.316Z,68.65
2022-08-08T03:00:51.030Z,69.63
2022-08-08T03:05:04.670Z,69.10
2022-08-08T03:07:07.218Z,68.33
2022-08-08T03:10:31.446Z,70.14
2022-08-08T03:13:33.939Z,69.63
2022-08-08T03:16:37.308Z,70.94
2022-08-08T03:19:51.103Z,71.47
2022-08-08T03:22:38.853Z,70.39
2022-08-08T03:25:14.424Z,70.83
2022-08-08T03:27:56.303Z,71.25
2022-08-08T03:30:29.537Z,70.98
2022-08-08T03:33:54.827Z,70.33
2022-08-08T03:36:10.414Z,70.57
2022-08-08T03:38:57.604Z,70.99
2022-08-08T03:42:26.667Z,70.91
2022-08-08T03:44:25.557Z,71.79
2022-08-08T03:46:53.235Z,71.70
2022-08-08T03:49:57.465Z,71.37
2022-08-08T03:52:13.250Z,70.17
2022-08-08T03:55:02.035Z,70.44
2022-08-08T03:58:30.675Z,69.76
2022-08-08T04:00:26.263Z,69.79
2022-08-08T04:03:11.773Z,70.15
2022-08-08T04:05:47.922Z,69.16
2022-08-08T04:08:32.995Z,69.57
2022-08-08T04:11:11.056Z,68.62
2022-08-08T04:14:04.014Z,69.44
2022-08-08T04:16:38.542Z,69.74
2022-08-08T04:19:23.317Z,70.11
2022-08-08T04:21:54.353Z,69.99
2022-08-08T04:24:29.298Z,68.88
2022-08-08T04:26:59.652Z,69.49
2022-08-08T04:29:36.644Z,69.96
2022-08-08T04:32:06.899Z,69.34
2022-08-08T04:34:49.259Z,69.12
2022-08-08T04:37:21.186Z,68.46
2022-08-08T04:40:06.621Z,67.77
2022-08-08T04:42:56.038Z,67.56
2022-08-08T04:45:27.019Z,66.78
2022-08-08T04:48:00.465Z,65.11
2022-08-08T04:50:38.476Z,65.36
2022-08-08T04:53:13.898Z,64.77
2022-08-08T04:55:56.243Z,63.78
2022-08-08T04:58:25.811Z,64.46
2022-08-08T05:00:52.821Z,64.18
2022-08-08T05:04:08.260Z,63.39
2022-08-08T05:06:13.308Z,62.77
2022-08-08T05:08:51.859Z,63.72
2022-08-08T05:11:22.499Z,63.73
2022-08-08T05:13:58.008Z,63.85
2022-08-08T05:16:54.854Z,63.69
2022-08-08T05:20:09.884Z,63.60
2022-08-08T05:22:11.199Z,64.09
2022-08-08T05:24:38.894Z,65.12
2022-08-08T05:27:07.693Z,64.75
2022-08-08T05:29:35.917Z,64.31
2022-08-08T05:32:07.277Z,64.09
2022-08-08T05:34:46.615Z,63.61
2022-08-08T05:37:39.455Z,63.24
2022-08-08T05:40:14.642Z,62.38
2022-08-08T05:42:51.797Z,62.23
2022-08-08T05:45:25.514Z,61.94
2022-08-08T05:48:08.160Z,61.97
2022-08-08T05:50:39.900Z,61.43
2022-08-08T05:53:53.839Z,60.34
2022-08-08T05:56:10.244Z,60.19
2022-08-08T05:58:56.884Z,60.01
2022-08-08T06:01:56.547Z,59.67
2022-08-08T06:04:29.424Z,59.72
2022-08-08T06:07:03.930Z,59.14
2022-08-08T06:09:57.992Z,58.80
2022-08-08T06:12:29.612Z,58.22
2022-08-08T06:15:06.115Z,58.58
2022-08-08T06:18:18.296Z,57.24
2022-08-08T06:20:27.130Z,56.39
2022-08-08T06:22:57.874Z,56.90
2022-08-08T06:25:33.431Z,56.10
2022-08-08T06:28:54.036Z,55.48
2022-08-08T06:31:32.221Z,55.38
2022-08-08T06:34:26.965Z,55.40
2022-08-08T06:37:00.174Z,54.24
2022-08-08T06:39:33.276Z,53.55
2022-08-08T06:42:02.948Z,52.82
2022-08-08T06:44:30.436Z,52.17
2022-08-08T06:46:58.959Z,53.29
2022-08-08T06:49:55.031Z,52.09
2022-08-08T06:52:16.051Z,51.13
2022-08-08T06:54:44.706Z,51.63
2022-08-08T06:57:16.154Z,50.91
2022-08-08T07:00:10.255Z,50.18
2022-08-08T07:02:34.166Z,50.49
2022-08-08T07:05:06.873Z,50.20
2022-08-08T07:07:52.286Z,49.53
2022-08-08T07:10:27.209Z,48.63
2022-08-08T07:13:06.886Z,48.44
2022-08-08T07:16:04.290Z,47.08
2022-08-08T07:19:09.761Z,47.65
2022-08-08T07:22:05.452Z,47.58
2022-08-08T07:25:02.373Z,46.83
2022-08-08T07:27:55.722Z,46.13
2022-08-08T07:30:32.341Z,45.42
2022-08-08T07:33:11.686Z,45.24
2022-08-08T07:35:47.288Z,44.90
2022-08-08T07:38:25.528Z,44.67
2022-08-08T07:41:04.524Z,44.30
2022-08-08T07:43:37.509Z,43.73
2022-08-08T07:46:24.148Z,44.12
2022-08-08T07:48:56.750Z,43.46
2022-08-08T07:51:45.549Z,44.26
2022-08-08T07:54:29.407Z,43.12
2022-08-08T07:57:09.132Z,42.96
2022-08-08T07:59:52.909Z,42.06
2022-08-08T08:02:41.723Z,40.65
2022-08-08T08:05:33.568Z,40.82
2022-08-08T08:08:21.652Z,40.99
2022-08-08T08:10:56.840Z,39.70
2022-08-08T08:14:07.563Z,40.02
2022-08-08T08:16:41.144Z,40.42
2022-08-08T08:19:14.991Z,40.18
2022-08-08T08:21:57.346Z,39.75
2022-08-08T08:24:32.436Z,39.04
2022-08-08T08:27:02.571Z,37.95
2022-08-08T08:29:33.135Z,37.90
2022-08-08T08:32:05.453Z,37.74
2022-08-08T08:34:37.229Z,37.36
2022-08-08T08:37:15.519Z,36.56
2022-08-08T08:40:02.003Z,36.91
2022-08-08T08:42:36.160Z,35.75
2022-08-08T08:45:21.004Z,36.88
2022-08-08T08:47:52.993Z,36.19
2022-08-08T08:50:32.793Z,35.73
2022-08-08T08:53:27.666Z,36.36
2022-08-08T08:56:01.219Z,35.62
2022-08-08T08:58:35.476Z,35.11
2022-08-08T09:01:10.418Z,34.86
2022-08-08T09:03:50.642Z,35.00
2022-08-08T09:06:33.476Z,33.67
2022-08-08T09:09:35.268Z,34.58
2022-08-08T09:12:10.410Z,34.15
2022-08-08T09:14:42.410Z,33.67
2022-08-08T09:17:17.443Z,34.54
2022-08-08T09:21:57.303Z,34.98
2022-08-08T09:22:40.140Z,34.77
2022-08-08T09:25:09.702Z,35.22
2022-08-08T09:27:55.769Z,34.90
2022-08-08T09:30:29.641Z,34.70
2022-08-08T09:33:54.656Z,34.88
2022-08-08T09:35:49.596Z,34.38
2022-08-08T09:38:53.006Z,32.87
2022-08-08T09:42:15.234Z,32.49
2022-08-08T09:44:40.714Z,32.05
2022-08-08T09:47:26.700Z,32.23
2022-08-08T09:50:04.799Z,31.48
2022-08-08T09:52:58.441Z,31.18
2022-08-08T09:55:31.208Z,29.75
2022-08-08T09:58:27.736Z,29.87
2022-08-08T10:01:14.200Z,30.22
2022-08-08T10:03:56.075Z,29.50
2022-08-08T10:06:29.201Z,29.55
2022-08-08T10:08:56.742Z,30.17
2022-08-08T10:12:26.313Z,28.86
2022-08-08T10:14:34.831Z,28.51
2022-08-08T10:17:57.458Z,27.55
2022-08-08T10:20:01.789Z,27.31
2022-08-08T10:22:34.295Z,27.88
2022-08-08T10:25:07.306Z,28.14
2022-08-08T10:27:50.564Z,28.36
2022-08-08T10:30:59.717Z,28.24
2022-08-08T10:33:12.356Z,27.53
2022-08-08T10:36:09.783Z,26.62
2022-08-08T10:38:35.696Z,26.77
2022-08-08T10:41:17.452Z,26.83
2022-08-08T10:43:51.665Z,27.68
2022-08-08T10:46:30.197Z,27.83
2022-08-08T10:48:59.431Z,27.76
2022-08-08T10:51:31.529Z,28.54
2022-08-08T10:54:07.660Z,28.24
2022-08-08T10:56:36.108Z,27.18
2022-08-08T10:59:10.217Z,26.70
2022-08-08T11:01:54.472Z,26.72
2022-08-08T11:04:29.826Z,26.08
2022-08-08T11:07:01.025Z,26.14
2022-08-08T11:09:32.136Z,25.92
2022-08-08T11:12:04.906Z,25.42
2022-08-08T11:14:51.364Z,25.98
2022-08-08T11:17:58.108Z,26.17
2022-08-08T11:20:27.592Z,25.64
2022-08-08T11:23:05.711Z,25.01
2022-08-08T11:25:52.874Z,25.69
2022-08-08T11:28:29.637Z,25.46
2022-08-08T11:31:08.665Z,26.59
2022-08-08T11:33:53.117Z,26.76
2022-08-08T11:36:29.395Z,26.79
2022-08-08T11:38:57.516Z,26.92
2022-08-08T11:41:33.846Z,27.56
2022-08-08T11:44:05.396Z,27.47
2022-08-08T11:46:36.882Z,28.45
2022-08-08T11:49:11.375Z,28.90
2022-08-08T11:51:49.877Z,28.66
2022-08-08T11:54:27.202Z,27.80
2022-08-08T11:57:27.552Z,26.96
2022-08-08T12:00:02.901Z,26.02
2022-08-08T12:02:48.924Z,26.17
2022-08-08T12:05:18.464Z,25.73
2022-08-08T12:07:53.675Z,26.99
2022-08-08T12:10:31.884Z,28.04
2022-08-08T12:13:09.734Z,28.48
2022-08-08T12:15:49.138Z,27.54
2022-08-08T12:18:25.828Z,28.01
2022-08-08T12:20:56.645Z,28.74
2022-08-08T12:23:42.826Z,28.77
2022-08-08T12:26:35.803Z,28.76
2022-08-08T12:29:25.804Z,28.49
2022-08-08T12:32:20.238Z,28.72
2022-08-08T12:35:04.777Z,27.76
2022-08-08T12:37:48.140Z,27.88
2022-08-08T12:40:54.190Z,27.65
2022-08-08T12:43:46.369Z,27.58
2022-08-08T12:46:26.820Z,27.87
2022-08-08T12:51:58.906Z,28.75
2022-08-08T12:54:40.912Z,29.35
2022-08-08T12:57:26.105Z,29.99
2022-08-08T13:00:04.171Z,30.02
2022-08-08T13:02:37.951Z,30.78
2022-08-08T13:05:26.351Z,30.47
2022-08-08T13:08:21.903Z,30.52
2022-08-08T13:10:58.474Z,30.22
2022-08-08T13:13:35.522Z,30.16
2022-08-08T13:16:21.204Z,30.60
2022-08-08T13:18:57.619Z,30.26
2022-08-08T13:21:49.234Z,29.72
2022-08-08T13:24:18.751Z,30.09
2022-08-08T13:27:13.079Z,29.52
2022-08-08T13:29:58.772Z,29.03
2022-08-08T13:32:37.234Z,28.86
2022-08-08T13:35:25.164Z,29.36
2022-08-08T13:38:08.125Z,28.81
2022-08-08T13:40:44.946Z,28.93
2022-08-08T13:43:16.132Z,29.18
2022-08-08T13:45:47.431Z,30.45
2022-08-08T13:48:19.654Z,29.95
2022-08-08T13:50:56.890Z,30.57
2022-08-08T13:53:36.393Z,30.48
2022-08-08T13:56:11.310Z,30.53
2022-08-08T13:58:57.904Z,30.79
2022-08-08T14:01:41.779Z,31.27
2022-08-08T14:04:25.118Z,31.67
2022-08-08T14:07:04.476Z,31.70
2022-08-08T14:10:04.734Z,31.55
2022-08-08T14:12:21.364Z,30.91
2022-08-08T14:14:48.243Z,31.29
2022-08-08T14:17:22.172Z,30.72
2022-08-08T14:19:57.128Z,30.79
2022-08-08T14:22:42.206Z,30.54
2022-08-08T14:25:15.264Z,30.71
2022-08-08T14:28:00.229Z,31.15
2022-08-08T14:30:35.781Z,31.02
2022-08-08T14:33:11.198Z,31.30
2022-08-08T14:35:43.227Z,31.79
2022-08-08T14:38:34.177Z,30.79
2022-08-08T14:41:48.767Z,31.06
2022-08-08T14:44:13.289Z,30.42
2022-08-08T14:47:00.147Z,30.55
2022-08-08T14:49:37.895Z,30.70
2022-08-08T14:52:26.731Z,30.69
2022-08-08T14:54:58.879Z,30.33
2022-08-08T14:58:06.067Z,31.36
2022-08-08T15:00:15.445Z,31.95
2022-08-08T15:02:59.123Z,31.74
2022-08-08T15:05:54.407Z,31.96
2022-08-08T15:08:35.484Z,31.96
2022-08-08T15:11:09.376Z,31.78
2022-08-08T15:14:01.344Z,30.89
2022-08-08T15:16:28.813Z,30.94
2022-08-08T15:18:55.981Z,30.80
2022-08-08T15:21:22.857Z,30.72
2022-08-08T15:23:59.466Z,31.01
2022-08-08T15:26:28.933Z,31.48
2022-08-08T15:28:57.151Z,31.25
2022-08-08T15:32:03.661Z,32.17
2022-08-08T15:34:31.899Z,32.03
2022-08-08T15:37:05.014Z,32.39
2022-08-08T15:39:38.244Z,31.95
2022-08-08T15:42:10.323Z,32.19
2022-08-08T15:44:38.543Z,32.82
2022-08-08T15:47:07.329Z,32.07
2022-08-08T15:49:44.695Z,33.08
2022-08-08T15:52:20.507Z,32.58
2022-08-08T15:54:55.710Z,32.51
2022-08-08T15:57:25.245Z,32.82
2022-08-08T16:00:05.749Z,33.30
2022-08-08T16:02:50.271Z,33.80
2022-08-08T16:05:20.528Z,33.08
2022-08-08T16:07:51.192Z,34.05
2022-08-08T16:13:03.455Z,33.79
2022-08-08T16:13:30.932Z,34.08
2022-08-08T16:16:09.495Z,34.31
2022-08-08T16:18:53.300Z,33.75
2022-08-08T16:21:31.621Z,33.77
2022-08-08T16:24:04.892Z,33.87
2022-08-08T16:26:36.403Z,33.60
2022-08-08T16:29:18.744Z,34.11
2022-08-08T16:31:50.838Z,33.99
2022-08-08T16:34:21.106Z,34.19
2022-08-08T16:36:51.729Z,34.46
2022-08-08T16:39:27.856Z,35.43
2022-08-08T16:42:18.516Z,35.20
2022-08-08T16:44:47.534Z,35.65
2022-08-08T16:47:39.825Z,35.63
2022-08-08T16:50:15.752Z,35.97
2022-08-08T16:55:05.349Z,36.05
2022-08-08T16:55:52.441Z,36.78
2022-08-08T16:58:25.821Z,37.52
2022-08-08T17:00:58.812Z,37.93
2022-08-08T17:03:58.592Z,38.27
2022-08-08T17:06:41.792Z,38.58
2022-08-08T17:09:14.970Z,39.40
2022-08-08T17:11:49.151Z,39.39
2022-08-08T17:14:27.405Z,40.54
2022-08-08T17:16:58.637Z,40.53
2022-08-08T17:19:30.478Z,40.29
2022-08-08T17:22:06.098Z,40.85
2022-08-08T17:24:33.833Z,41.08
2022-08-08T17:27:02.941Z,41.63
2022-08-08T17:29:43.902Z,41.73
2022-08-08T17:32:34.161Z,42.61
2022-08-08T17:35:53.664Z,42.22
2022-08-08T17:38:00.264Z,42.79
2022-08-08T17:40:32.767Z,42.99
2022-08-08T17:42:59.722Z,42.76
2022-08-08T17:45:26.852Z,43.39
2022-08-08T17:47:59.842Z,43.62
2022-08-08T17:50:27.084Z,43.53
2022-08-08T17:52:57.685Z,43.20
2022-08-08T17:56:07.011Z,43.63
2022-08-08T17:58:15.796Z,43.26
2022-08-08T18:00:42.705Z,43.50
2022-08-08T18:03:25.383Z,44.16
2022-08-08T18:05:52.413Z,44.08
2022-08-08T18:08:24.988Z,44.34
2022-08-08T18:11:11.771Z,44.32
2022-08-08T18:13:44.393Z,44.81
2022-08-08T18:16:20.644Z,44.98
2022-08-08T18:18:53.424Z,45.20
2022-08-08T18:21:35.650Z,45.17
2022-08-08T18:24:21.131Z,45.26
2022-08-08T18:26:55.871Z,45.38
2022-08-08T18:29:34.059Z,46.14
2022-08-08T18:32:10.458Z,45.53
2022-08-08T18:34:44.392Z,45.50
2022-08-08T18:37:17.870Z,45.38
2022-08-08T18:40:07.952Z,45.94
2022-08-08T18:42:45.594Z,45.47
2022-08-08T18:46:00.530Z,45.93
2022-08-08T18:48:07.723Z,45.89
2022-08-08T18:50:39.501Z,45.90
2022-08-08T18:53:09.163Z,45.98
2022-08-08T18:55:43.897Z,46.14
2022-08-08T18:58:11.025Z,46.35
2022-08-08T19:00:37.998Z,46.65
2022-08-08T19:03:09.664Z,46.75
2022-08-08T19:05:44.211Z,46.72
2022-08-08T19:08:28.504Z,47.15
2022-08-08T19:11:02.510Z,46.72
2022-08-08T19:13:53.891Z,46.85
2022-08-08T19:16:28.422Z,46.97
2022-08-08T19:19:02.977Z,47.30
2022-08-08T19:21:49.219Z,47.00
2022-08-08T19:24:34.115Z,47.77
2022-08-08T19:27:05.850Z,48.37
2022-08-08T19:29:42.325Z,47.87
2022-08-08T19:32:19.627Z,48.17
2022-08-08T19:34:51.484Z,47.85
2022-08-08T19:37:19.192Z,48.35
2022-08-08T19:40:14.620Z,47.75
2022-08-08T19:42:44.158Z,48.39
2022-08-08T19:45:14.146Z,48.46
2022-08-08T19:48:01.574Z,49.04
2022-08-08T19:50:29.057Z,49.31
2022-08-08T19:53:00.289Z,49.21
2022-08-08T19:55:27.277Z,48.99
2022-08-08T19:58:04.119Z,49.51
2022-08-08T20:00:35.366Z,49.63
2022-08-08T20:03:14.806Z,50.18
2022-08-08T20:06:15.521Z,50.58
2022-08-08T20:08:48.054Z,50.77
2022-08-08T20:11:15.763Z,50.42
2022-08-08T20:14:12.340Z,50.65
2022-08-08T20:16:30.266Z,51.09
2022-08-08T20:18:57.483Z,51.29
2022-08-08T20:21:26.033Z,51.50
2022-08-08T20:23:57.579Z,51.40
2022-08-08T20:26:33.342Z,51.97
2022-08-08T20:29:04.152Z,52.31
2022-08-08T20:31:47.058Z,52.29
2022-08-08T20:34:30.008Z,52.69
2022-08-08T20:37:04.642Z,52.54
2022-08-08T20:39:41.323Z,53.23
2022-08-08T20:42:28.541Z,53.97
2022-08-08T20:44:57.326Z,53.82
2022-08-08T20:47:25.548Z,53.89
2022-08-08T20:49:54.092Z,54.60
2022-08-08T20:52:23.386Z,55.01
2022-08-08T20:54:50.379Z,55.01
2022-08-08T20:57:19.024Z,55.19
2022-08-08T20:59:50.442Z,55.69
2022-08-08T21:02:27.004Z,56.07
2022-08-08T21:05:00.378Z,56.45
2022-08-08T21:07:31.314Z,56.57
2022-08-08T21:10:17.215Z,56.84
2022-08-08T21:12:46.214Z,57.35
2022-08-08T21:15:16.493Z,57.87
2022-08-08T21:18:02.944Z,58.03
2022-08-08T21:20:34.497Z,58.43
2022-08-08T21:23:02.965Z,58.70
2022-08-08T21:25:36.288Z,59.03
2022-08-08T21:28:09.464Z,58.92
2022-08-08T21:30:51.898Z,59.43
2022-08-08T21:33:20.537Z,59.42
2022-08-08T21:36:16.630Z,59.69
2022-08-08T21:38:37.381Z,60.10
2022-08-08T21:41:04.328Z,59.89
2022-08-08T21:43:34.192Z,60.40
2022-08-08T21:48:06.768Z,60.64
2022-08-08T21:49:03.369Z,61.08
2022-08-08T21:54:16.922Z,61.91
2022-08-08T21:54:52.215Z,62.29
2022-08-08T21:57:09.630Z,62.38
2022-08-08T22:00:03.070Z,61.98
2022-08-08T22:02:28.950Z,62.50
2022-08-08T22:04:58.838Z,62.43
2022-08-08T22:07:34.688Z,61.58
2022-08-08T22:10:18.250Z,62.32
2022-08-08T22:13:16.908Z,62.55
2022-08-08T22:15:44.073Z,63.13
2022-08-08T22:18:33.038Z,64.17
2022-08-08T22:21:14.632Z,64.80
2022-08-08T22:23:51.848Z,64.73
2022-08-08T22:26:27.013Z,64.62
2022-08-08T22:29:04.626Z,64.58
2022-08-08T22:31:58.809Z,64.89
2022-08-08T22:34:39.470Z,65.02
2022-08-08T22:37:49.207Z,64.64
2022-08-08T22:40:02.350Z,64.87
2022-08-08T22:42:34.587Z,64.97
2022-08-08T22:45:12.433Z,65.70
2022-08-08T22:47:49.146Z,65.30
2022-08-08T22:50:27.033Z,65.79
2022-08-08T22:54:30.676Z,65.53
2022-08-08T22:55:59.826Z,65.83
2022-08-08T22:58:35.373Z,65.80
2022-08-08T23:01:26.555Z,66.79
2022-08-08T23:04:00.423Z,66.87
2022-08-08T23:06:29.904Z,66.67
2022-08-08T23:09:00.643Z,67.03
2022-08-08T23:12:29.129Z,67.79
2022-08-08T23:14:25.658Z,66.56
2022-08-08T23:16:59.111Z,67.14
2022-08-08T23:19:30.772Z,67.19
2022-08-08T23:22:05.158Z,67.08
2022-08-08T23:24:41.629Z,67.11
2022-08-08T23:27:10.974Z,67.12
2022-08-08T23:29:49.360Z,67.40
2022-08-08T23:32:22.948Z,67.20
2022-08-08T23:34:59.233Z,67.38
2022-08-08T23:38:00.816Z,67.48
2022-08-08T23:40:15.590Z,68.00
2022-08-08T23:42:45.328Z,68.39
2022-08-08T23:45:13.446Z,68.35
2022-08-08T23:49:01.956Z,69.33
2022-08-08T23:50:30.699Z,69.54
2022-08-08T23:53:03.619Z,69.25
2022-08-08T23:55:42.055Z,69.49
2022-08-08T23:58:09.610Z,69.61
